Time;durP1;ratioP1;P1;durP2;ratioP2;P2;SDS_P1;SDS_P2;PMS_P1;PMS_P2;Temp;Humidity;BMP_temperature;BMP_pressure;BME280_temperature;BME280_humidity;BME280_pressure;Samples;Min_cycle;Max_cycle;Signal;HPM_P1;HPM_P2
2023/01/27 00:01:19;;;;;;;29.63;14.40;;;-1.70;99.90;;;;;;4971062;28;20054;-91
2023/01/27 00:03:47;;;;;;;22.80;11.25;;;-1.70;99.90;;;;;;4968644;28;20055;-90
2023/01/27 00:06:15;;;;;;;30.23;15.25;;;-1.70;99.90;;;;;;4972391;28;20074;-91
2023/01/27 00:08:43;;;;;;;28.05;11.68;;;-1.70;99.90;;;;;;4953322;28;20051;-90
2023/01/27 00:13:56;;;;;;;20.25;12.45;;;-1.70;99.90;;;;;;4971370;28;20043;-91
2023/01/27 00:16:24;;;;;;;19.83;11.55;;;-1.70;99.90;;;;;;4952431;28;20046;-91
2023/01/27 00:18:51;;;;;;;23.95;14.32;;;-1.70;99.90;;;;;;4969356;28;20054;-92
2023/01/27 00:26:56;;;;;;;26.05;13.75;;;-1.70;99.90;;;;;;4969142;28;20110;-91
2023/01/27 00:29:24;;;;;;;30.23;13.70;;;-1.70;99.90;;;;;;4968809;28;20115;-90
2023/01/27 00:34:40;;;;;;;27.98;15.13;;;-1.70;99.90;;;;;;4970213;28;20058;-90
2023/01/27 00:37:09;;;;;;;25.70;12.32;;;-1.70;99.90;;;;;;4967919;28;20050;-90
2023/01/27 00:39:36;;;;;;;25.75;13.80;;;-1.70;99.90;;;;;;4970269;28;20059;-92
2023/01/27 00:42:04;;;;;;;31.70;13.20;;;-1.80;99.90;;;;;;4970450;28;20392;-90
2023/01/27 00:44:35;;;;;;;26.53;11.50;;;-1.70;99.90;;;;;;4948539;28;20450;-91
2023/01/27 00:47:02;;;;;;;24.77;14.13;;;-1.70;99.90;;;;;;4951985;28;20058;-91
2023/01/27 00:49:30;;;;;;;21.35;12.43;;;-1.80;99.90;;;;;;4967150;28;20043;-89
2023/01/27 00:52:01;;;;;;;27.85;13.30;;;-1.80;99.90;;;;;;4969311;28;20050;-91
2023/01/27 00:54:28;;;;;;;28.33;12.05;;;-1.70;99.90;;;;;;4967721;28;20069;-92
2023/01/27 00:56:56;;;;;;;30.13;12.18;;;-1.70;99.90;;;;;;4961130;28;20421;-91
2023/01/27 00:59:23;;;;;;;27.15;12.18;;;-1.70;99.90;;;;;;4950357;28;20494;-90
2023/01/27 01:01:51;;;;;;;25.58;13.27;;;-1.70;99.90;;;;;;4967280;28;20058;-92
2023/01/27 01:04:19;;;;;;;21.88;13.40;;;-1.60;99.90;;;;;;4969070;28;20038;-91
2023/01/27 01:06:47;;;;;;;26.15;12.88;;;-1.60;99.90;;;;;;4954054;28;20047;-91
2023/01/27 01:09:14;;;;;;;21.77;12.50;;;-1.60;99.90;;;;;;4952560;28;20376;-90
2023/01/27 01:11:42;;;;;;;22.77;10.80;;;-1.60;99.90;;;;;;4968911;28;20051;-91
2023/01/27 01:14:09;;;;;;;35.63;12.98;;;-1.60;99.90;;;;;;4969863;28;20054;-90
2023/01/27 01:16:37;;;;;;;14.23;9.30;;;-1.70;99.90;;;;;;4966821;28;20043;-91
2023/01/27 01:19:05;;;;;;;17.52;11.27;;;-1.60;99.90;;;;;;4951127;28;20073;-89
2023/01/27 01:21:32;;;;;;;28.20;13.70;;;-1.60;99.90;;;;;;4949819;28;20055;-89
2023/01/27 01:24:00;;;;;;;20.48;13.13;;;-1.60;99.90;;;;;;4951604;28;20050;-90
2023/01/27 01:26:29;;;;;;;20.60;11.38;;;-1.60;99.90;;;;;;4969848;28;20050;-91
2023/01/27 01:28:56;;;;;;;15.18;11.40;;;-1.60;99.90;;;;;;4966766;28;20062;-91
2023/01/27 01:31:26;;;;;;;19.10;12.77;;;-1.70;99.90;;;;;;4967681;28;20059;-90
2023/01/27 01:33:55;;;;;;;19.13;10.85;;;-1.70;99.90;;;;;;4969771;28;20046;-89
2023/01/27 01:36:23;;;;;;;24.30;13.10;;;-1.60;99.90;;;;;;4966648;28;20280;-89
2023/01/27 01:38:55;;;;;;;24.50;11.40;;;-1.60;99.90;;;;;;4966638;28;20059;-89
2023/01/27 01:41:24;;;;;;;16.30;9.15;;;-1.70;99.90;;;;;;4967140;28;20062;-90
2023/01/27 01:43:53;;;;;;;15.63;8.63;;;-1.60;99.90;;;;;;4949708;28;20047;-90
2023/01/27 01:46:21;;;;;;;18.70;9.05;;;-1.70;99.90;;;;;;4948877;28;20046;-90
2023/01/27 01:48:58;;;;;;;13.85;9.25;;;-1.70;99.90;;;;;;4969604;28;20050;-89
2023/01/27 01:51:43;;;;;;;13.05;9.35;;;-1.70;99.90;;;;;;4967121;28;20855;-89
2023/01/27 01:54:13;;;;;;;14.43;9.85;;;-1.70;99.90;;;;;;4963958;28;20047;-90
2023/01/27 01:56:51;;;;;;;16.67;8.23;;;-1.70;99.90;;;;;;4949491;29;20464;-90
2023/01/27 01:59:25;;;;;;;16.92;10.43;;;-1.70;99.90;;;;;;4949688;29;20074;-90
2023/01/27 02:01:57;;;;;;;14.95;8.68;;;-1.80;99.90;;;;;;4939928;29;20047;-74
2023/01/27 02:04:33;;;;;;;17.20;10.20;;;-1.70;99.90;;;;;;4945925;29;20412;-74
2023/01/27 02:07:10;;;;;;;12.88;8.00;;;-1.70;99.90;;;;;;4935151;29;20056;-74
2023/01/27 02:09:38;;;;;;;15.25;8.23;;;-1.70;99.90;;;;;;4948728;28;20047;-74
2023/01/27 02:12:06;;;;;;;22.10;10.90;;;-1.70;99.90;;;;;;4948831;28;20054;-74
2023/01/27 02:14:37;;;;;;;17.63;9.55;;;-1.70;99.90;;;;;;4940281;28;20436;-74
2023/01/27 02:17:06;;;;;;;16.17;8.15;;;-1.70;99.90;;;;;;4949459;28;20058;-74
2023/01/27 02:20:05;;;;;;;12.43;8.95;;;-1.70;99.90;;;;;;4950915;28;20062;-74
2023/01/27 02:22:42;;;;;;;17.33;10.98;;;-1.70;99.90;;;;;;4930367;29;20055;-74
2023/01/27 02:25:15;;;;;;;14.45;7.57;;;-1.80;99.90;;;;;;4945926;28;20058;-74
2023/01/27 02:27:43;;;;;;;15.85;10.75;;;-1.80;99.90;;;;;;4942989;29;20412;-74
2023/01/27 02:30:11;;;;;;;19.13;13.30;;;-1.80;99.90;;;;;;4951558;29;20044;-74
2023/01/27 02:32:39;;;;;;;18.48;9.23;;;-1.80;99.90;;;;;;4950681;28;20039;-74
2023/01/27 02:35:14;;;;;;;18.80;9.77;;;-1.80;99.90;;;;;;4948336;29;20078;-73
2023/01/27 02:37:42;;;;;;;16.27;9.73;;;-1.70;99.90;;;;;;4951725;29;20412;-74
2023/01/27 02:40:13;;;;;;;19.13;11.05;;;-1.70;99.90;;;;;;4952036;28;20055;-74
2023/01/27 02:42:41;;;;;;;19.52;9.38;;;-1.80;99.90;;;;;;4946245;29;20051;-74
2023/01/27 02:45:09;;;;;;;12.63;10.40;;;-1.80;99.90;;;;;;4942384;29;20039;-74
2023/01/27 02:47:37;;;;;;;14.60;10.10;;;-1.70;99.90;;;;;;4949991;29;20437;-74
2023/01/27 02:50:05;;;;;;;25.48;10.93;;;-1.70;99.90;;;;;;4948838;28;20053;-74
2023/01/27 02:52:33;;;;;;;15.80;9.90;;;-1.70;99.90;;;;;;4944304;29;20443;-74
2023/01/27 02:55:00;;;;;;;22.27;11.90;;;-1.80;99.90;;;;;;4931919;28;20058;-73
2023/01/27 02:57:29;;;;;;;16.88;9.85;;;-1.80;99.90;;;;;;4952099;28;20050;-74
2023/01/27 03:00:19;;;;;;;18.67;9.80;;;-1.80;99.90;;;;;;4951126;28;20045;-74
2023/01/27 03:02:46;;;;;;;20.02;11.88;;;-1.80;99.90;;;;;;4971674;28;20063;-74
2023/01/27 03:05:14;;;;;;;21.15;9.57;;;-1.70;99.90;;;;;;4969075;28;20419;-73
2023/01/27 03:07:42;;;;;;;22.15;11.05;;;-1.70;99.90;;;;;;4971931;28;20055;-74
2023/01/27 03:10:10;;;;;;;20.92;10.10;;;-1.70;99.90;;;;;;4969200;28;20043;-74
2023/01/27 03:12:37;;;;;;;19.65;11.45;;;-1.70;99.90;;;;;;4935373;28;20054;-74
2023/01/27 03:18:11;;;;;;;17.10;11.75;;;-1.70;99.90;;;;;;4967772;28;20054;-74
2023/01/27 03:20:45;;;;;;;15.73;11.05;;;-1.70;99.90;;;;;;4971336;28;20051;-74
2023/01/27 03:23:15;;;;;;;17.90;10.13;;;-1.70;99.90;;;;;;4951033;28;20411;-74
2023/01/27 03:25:48;;;;;;;16.67;10.45;;;-1.70;99.90;;;;;;4950799;28;20050;-74
2023/01/27 03:28:15;;;;;;;24.40;10.02;;;-1.70;99.90;;;;;;4968216;28;20415;-74
2023/01/27 03:31:06;;;;;;;17.88;10.50;;;-1.70;99.90;;;;;;4952663;28;20053;-74
2023/01/27 03:33:46;;;;;;;21.80;11.07;;;-1.70;99.90;;;;;;4953076;28;20058;-74
2023/01/27 03:47:40;;;;;;;17.50;9.85;;;-1.70;99.90;;;;;;4964740;28;20070;-74
2023/01/27 03:50:12;;;;;;;18.83;9.60;;;-1.60;99.90;;;;;;4962553;28;20089;-74
2023/01/27 03:52:40;;;;;;;17.15;8.80;;;-1.70;99.90;;;;;;4968026;28;20070;-74
2023/01/27 03:55:08;;;;;;;18.00;13.57;;;-1.70;99.90;;;;;;4970220;28;20061;-74
2023/01/27 03:57:37;;;;;;;15.77;11.88;;;-1.70;99.90;;;;;;4968079;28;20049;-74
2023/01/27 04:00:05;;;;;;;26.63;8.65;;;-1.70;99.90;;;;;;4970308;28;20050;-74
2023/01/27 04:08:12;;;;;;;13.00;8.48;;;-1.70;99.90;;;;;;4965815;28;20475;-74
2023/01/27 04:10:39;;;;;;;12.77;7.22;;;-1.80;99.90;;;;;;4966003;28;20055;-74
2023/01/27 04:13:07;;;;;;;16.05;7.00;;;-1.80;99.90;;;;;;4963725;28;20772;-74
2023/01/27 04:15:34;;;;;;;14.02;8.02;;;-1.90;99.90;;;;;;4968542;28;20416;-74
2023/01/27 04:18:06;;;;;;;14.18;7.93;;;-1.90;99.90;;;;;;4953525;28;20047;-74
2023/01/27 04:20:33;;;;;;;16.38;9.18;;;-1.90;99.90;;;;;;4970304;28;20042;-74
2023/01/27 04:23:01;;;;;;;10.02;6.60;;;-1.80;99.90;;;;;;4966976;28;20090;-74
2023/01/27 04:25:29;;;;;;;17.13;9.38;;;-1.90;99.90;;;;;;4965896;28;20043;-74
2023/01/27 04:27:56;;;;;;;13.10;7.93;;;-1.90;99.90;;;;;;4966497;28;20043;-74
2023/01/27 04:30:24;;;;;;;16.20;8.68;;;-1.90;99.90;;;;;;4970069;28;20066;-74
2023/01/27 04:32:51;;;;;;;8.75;6.63;;;-1.90;99.90;;;;;;4950510;28;20050;-74
2023/01/27 04:35:19;;;;;;;13.63;7.13;;;-1.90;99.90;;;;;;4970439;28;20054;-74
2023/01/27 04:37:51;;;;;;;8.65;6.75;;;-1.90;99.90;;;;;;4965332;28;20050;-74
2023/01/27 04:40:19;;;;;;;10.23;5.80;;;-1.90;99.90;;;;;;4963058;28;20039;-74
2023/01/27 04:42:47;;;;;;;10.35;5.15;;;-2.00;99.90;;;;;;4970697;28;20062;-74
2023/01/27 04:45:15;;;;;;;11.05;8.48;;;-2.00;99.90;;;;;;4965581;28;20736;-74
2023/01/27 04:47:43;;;;;;;16.63;7.90;;;-1.90;99.90;;;;;;4967744;28;20059;-74
2023/01/27 04:50:11;;;;;;;8.43;5.97;;;-2.00;99.90;;;;;;4964062;28;20053;-74
2023/01/27 04:52:45;;;;;;;17.95;9.20;;;-2.00;99.90;;;;;;4966404;28;20058;-74
2023/01/27 04:55:16;;;;;;;11.23;7.13;;;-1.90;99.90;;;;;;4968816;28;20059;-74
2023/01/27 04:57:43;;;;;;;15.52;8.43;;;-1.90;99.90;;;;;;4974299;28;20047;-74
2023/01/27 05:00:12;;;;;;;15.13;7.32;;;-1.90;99.90;;;;;;4973497;28;20059;-74
2023/01/27 05:02:41;;;;;;;15.25;7.30;;;-1.90;99.90;;;;;;4973470;28;20051;-74
2023/01/27 05:05:10;;;;;;;20.08;6.38;;;-1.90;99.90;;;;;;4974864;28;20046;-74
2023/01/27 05:07:38;;;;;;;8.20;5.75;;;-1.90;99.90;;;;;;4941954;28;20074;-74
2023/01/27 05:10:06;;;;;;;9.88;6.55;;;-1.90;99.90;;;;;;4974080;28;20043;-74
2023/01/27 05:12:34;;;;;;;9.27;6.38;;;-1.90;99.90;;;;;;4974256;28;20074;-74
2023/01/27 05:15:02;;;;;;;15.07;6.80;;;-1.90;99.90;;;;;;4957106;28;20061;-74
2023/01/27 05:17:31;;;;;;;11.93;7.82;;;-1.90;99.90;;;;;;4974673;28;20050;-74
2023/01/27 05:19:59;;;;;;;13.20;8.13;;;-1.90;99.90;;;;;;4973395;28;20065;-74
2023/01/27 05:23:36;;;;;;;10.90;5.45;;;-1.80;99.90;;;;;;4974603;28;20054;-74
2023/01/27 05:26:17;;;;;;;13.00;8.65;;;-1.80;99.90;;;;;;4974019;28;20039;-74
2023/01/27 05:28:46;;;;;;;10.15;6.25;;;-1.80;99.90;;;;;;4974123;28;20054;-74
2023/01/27 05:31:17;;;;;;;13.57;8.10;;;-1.80;99.90;;;;;;4973711;28;20050;-75
2023/01/27 05:33:46;;;;;;;10.80;7.55;;;-1.80;99.90;;;;;;4974048;28;20412;-75
2023/01/27 05:36:16;;;;;;;11.50;6.90;;;-1.70;99.90;;;;;;4974327;28;20043;-75
2023/01/27 05:38:44;;;;;;;8.30;5.95;;;-1.70;99.90;;;;;;4957724;28;20054;-75
2023/01/27 05:41:16;;;;;;;18.67;5.85;;;-1.70;99.90;;;;;;4973912;28;20049;-75
2023/01/27 05:43:45;;;;;;;11.35;8.07;;;-1.70;99.90;;;;;;4963657;28;20043;-75
2023/01/27 05:46:15;;;;;;;14.15;8.02;;;-1.70;99.90;;;;;;4979180;28;20030;-75
2023/01/27 05:48:46;;;;;;;8.13;6.38;;;-1.60;99.90;;;;;;4993265;28;20059;-75
2023/01/27 05:51:16;;;;;;;14.15;7.00;;;-1.60;99.90;;;;;;4996122;28;20035;-75
2023/01/27 05:53:44;;;;;;;13.60;9.00;;;-1.60;99.90;;;;;;4978001;28;20064;-75
2023/01/27 05:56:14;;;;;;;16.20;6.70;;;-1.60;99.90;;;;;;4995165;28;20041;-75
2023/01/27 05:58:43;;;;;;;8.10;4.43;;;-1.60;99.90;;;;;;4985915;28;20045;-75
2023/01/27 06:01:16;;;;;;;9.82;6.32;;;-1.60;99.90;;;;;;4992525;28;20047;-75
2023/01/27 06:03:45;;;;;;;11.68;5.38;;;-1.60;99.90;;;;;;4995845;28;20043;-75
2023/01/27 06:06:14;;;;;;;12.93;6.90;;;-1.60;99.90;;;;;;4994682;28;20173;-75
2023/01/27 06:08:44;;;;;;;11.50;5.72;;;-1.60;99.90;;;;;;4978369;28;20057;-75
2023/01/27 06:11:13;;;;;;;12.50;5.95;;;-1.60;99.90;;;;;;4973889;28;20043;-75
2023/01/27 06:13:41;;;;;;;11.90;6.45;;;-1.60;99.90;;;;;;4978859;28;20042;-75
2023/01/27 06:16:12;;;;;;;10.50;7.07;;;-1.60;99.90;;;;;;4959192;28;20031;-75
2023/01/27 06:18:40;;;;;;;11.40;5.70;;;-1.70;99.90;;;;;;4990481;28;20054;-75
2023/01/27 06:21:09;;;;;;;9.73;6.15;;;-1.60;99.90;;;;;;4978116;28;20239;-75
2023/01/27 06:23:38;;;;;;;7.38;6.18;;;-1.70;99.90;;;;;;4991858;28;20043;-74
2023/01/27 06:26:11;;;;;;;7.47;5.55;;;-1.70;99.90;;;;;;4992875;28;20053;-75
2023/01/27 06:28:39;;;;;;;11.18;4.78;;;-1.70;99.90;;;;;;4976126;28;20039;-75
2023/01/27 06:31:14;;;;;;;9.32;6.20;;;-1.70;99.90;;;;;;4979081;28;20209;-75
2023/01/27 06:33:43;;;;;;;6.05;4.65;;;-1.70;99.90;;;;;;4976708;28;20046;-74
2023/01/27 06:36:13;;;;;;;8.65;5.40;;;-1.70;99.90;;;;;;4965511;28;20039;-75
2023/01/27 06:38:41;;;;;;;6.40;4.00;;;-1.60;99.90;;;;;;4931327;29;20439;-75
2023/01/27 06:41:09;;;;;;;5.90;4.93;;;-1.70;99.90;;;;;;4944767;28;20772;-75
2023/01/27 06:43:37;;;;;;;10.60;6.97;;;-1.70;99.90;;;;;;4966644;28;20434;-75
2023/01/27 06:46:05;;;;;;;11.55;5.80;;;-1.70;99.90;;;;;;4948217;28;20043;-74
2023/01/27 06:48:36;;;;;;;11.30;4.82;;;-1.70;99.90;;;;;;4948719;28;20059;-75
2023/01/27 06:51:04;;;;;;;8.15;5.65;;;-1.70;99.90;;;;;;4968920;28;20046;-75
2023/01/27 06:53:33;;;;;;;8.90;6.03;;;-1.70;99.90;;;;;;4964680;28;20893;-75
2023/01/27 06:56:01;;;;;;;15.05;6.97;;;-1.70;99.90;;;;;;4964592;28;20058;-75
2023/01/27 06:58:29;;;;;;;12.35;5.70;;;-1.70;99.90;;;;;;4950889;28;20059;-75
2023/01/27 07:00:57;;;;;;;8.13;5.38;;;-1.70;99.90;;;;;;4946874;28;20054;-75
2023/01/27 07:03:25;;;;;;;13.52;6.47;;;-1.70;99.90;;;;;;4951135;28;20062;-74
2023/01/27 07:05:53;;;;;;;9.10;5.95;;;-1.70;99.90;;;;;;4954247;28;20403;-75
2023/01/27 07:08:20;;;;;;;16.13;6.15;;;-1.80;99.90;;;;;;4950405;28;20436;-75
2023/01/27 07:10:48;;;;;;;10.00;5.03;;;-1.80;99.90;;;;;;4969555;28;20412;-76
2023/01/27 07:13:17;;;;;;;11.23;6.63;;;-1.80;99.90;;;;;;4966366;28;20408;-75
2023/01/27 07:15:45;;;;;;;12.30;6.07;;;-1.80;99.90;;;;;;4971928;28;20043;-74
2023/01/27 07:18:13;;;;;;;8.45;7.15;;;-1.80;99.90;;;;;;4971004;28;20471;-75
2023/01/27 07:20:41;;;;;;;11.20;6.93;;;-1.70;99.90;;;;;;4968535;28;20434;-75
2023/01/27 07:23:09;;;;;;;12.40;7.13;;;-1.80;99.90;;;;;;4970333;28;20062;-75
2023/01/27 07:25:38;;;;;;;9.55;5.85;;;-1.80;99.90;;;;;;4967469;28;20051;-74
2023/01/27 07:28:05;;;;;;;7.90;6.70;;;-1.80;99.90;;;;;;4968830;28;20050;-75
2023/01/27 07:30:33;;;;;;;9.07;5.50;;;-1.80;99.90;;;;;;4970437;28;20050;-75
2023/01/27 07:33:06;;;;;;;10.48;7.65;;;-1.80;99.90;;;;;;4967195;28;20399;-74
2023/01/27 07:35:36;;;;;;;8.07;5.70;;;-1.80;99.90;;;;;;4970597;28;20466;-74
2023/01/27 07:38:05;;;;;;;9.27;6.10;;;-1.80;99.90;;;;;;4966878;28;20054;-74
2023/01/27 07:40:33;;;;;;;14.25;7.93;;;-1.80;99.90;;;;;;4969839;28;20055;-74
2023/01/27 07:43:01;;;;;;;8.10;5.85;;;-1.80;99.90;;;;;;4951960;28;20066;-75
2023/01/27 07:45:33;;;;;;;9.60;7.28;;;-1.80;99.90;;;;;;4948451;28;20062;-74
2023/01/27 07:48:06;;;;;;;9.40;6.20;;;-1.80;99.90;;;;;;4971278;28;20058;-75
2023/01/27 07:50:35;;;;;;;18.33;9.20;;;-1.80;99.90;;;;;;4946335;28;20061;-75
2023/01/27 07:53:04;;;;;;;10.30;5.03;;;-1.80;99.90;;;;;;4968236;28;20441;-75
2023/01/27 07:55:32;;;;;;;10.43;7.78;;;-1.80;99.90;;;;;;4951732;28;20051;-74
2023/01/27 07:58:00;;;;;;;7.68;5.00;;;-1.80;99.90;;;;;;4969817;28;20046;-74
2023/01/27 08:00:29;;;;;;;13.43;9.10;;;-1.70;99.90;;;;;;4968064;28;20051;-75
2023/01/27 08:02:58;;;;;;;14.57;8.73;;;-1.70;99.90;;;;;;4968006;28;20046;-75
2023/01/27 08:05:26;;;;;;;13.93;6.75;;;-1.60;99.90;;;;;;4964008;28;20047;-75
2023/01/27 08:07:55;;;;;;;11.63;7.38;;;-1.60;99.90;;;;;;4966596;28;20055;-75
2023/01/27 08:10:25;;;;;;;10.20;6.95;;;-1.50;99.90;;;;;;4964304;28;20047;-75
2023/01/27 08:12:53;;;;;;;9.02;6.45;;;-1.50;99.90;;;;;;4949149;28;20054;-75
2023/01/27 08:15:21;;;;;;;11.93;9.75;;;-1.50;99.90;;;;;;4965849;28;20061;-75
2023/01/27 08:17:57;;;;;;;13.85;7.60;;;-1.50;99.90;;;;;;4970429;28;20043;-75
2023/01/27 08:20:26;;;;;;;11.77;6.07;;;-1.40;99.90;;;;;;4973341;28;20030;-75
2023/01/27 08:22:54;;;;;;;13.77;9.02;;;-1.40;99.90;;;;;;4962664;28;20523;-74
2023/01/27 08:25:22;;;;;;;12.48;8.35;;;-1.50;99.90;;;;;;4967056;28;20478;-75
2023/01/27 08:27:52;;;;;;;11.55;7.63;;;-1.50;99.90;;;;;;4966865;28;20226;-75
2023/01/27 08:30:20;;;;;;;8.52;5.78;;;-1.50;99.90;;;;;;4951024;28;20431;-75
2023/01/27 08:32:48;;;;;;;11.57;7.40;;;-1.50;99.90;;;;;;4970311;28;20047;-75
2023/01/27 08:35:16;;;;;;;6.25;5.65;;;-1.40;99.90;;;;;;4949111;28;20059;-75
2023/01/27 08:37:47;;;;;;;16.23;9.02;;;-1.50;99.90;;;;;;4966919;28;20382;-75
2023/01/27 08:40:16;;;;;;;15.82;8.93;;;-1.50;99.90;;;;;;4963371;28;20050;-75
2023/01/27 08:42:44;;;;;;;14.52;7.10;;;-1.40;99.90;;;;;;4969695;28;20055;-75
2023/01/27 08:45:12;;;;;;;11.10;5.60;;;-1.40;99.90;;;;;;4934318;28;20066;-74
2023/01/27 08:47:39;;;;;;;14.05;8.55;;;-1.40;99.90;;;;;;4967765;28;20506;-75
2023/01/27 08:50:09;;;;;;;9.20;6.82;;;-1.40;99.90;;;;;;4949684;28;20057;-75
2023/01/27 08:52:37;;;;;;;11.73;6.90;;;-1.40;99.90;;;;;;4969065;28;20054;-75
2023/01/27 08:55:06;;;;;;;14.85;8.32;;;-1.30;99.90;;;;;;4952841;28;20073;-75
2023/01/27 08:57:34;;;;;;;15.43;8.43;;;-1.30;99.90;;;;;;4948872;28;20055;-74
2023/01/27 09:00:05;;;;;;;12.43;7.32;;;-1.30;99.90;;;;;;4966971;28;20074;-75
2023/01/27 09:02:33;;;;;;;16.63;8.18;;;-1.30;99.90;;;;;;4969802;28;20057;-75
2023/01/27 09:05:01;;;;;;;13.25;8.50;;;-1.30;99.90;;;;;;4949254;28;20058;-75
2023/01/27 09:07:30;;;;;;;16.02;7.45;;;-1.30;99.90;;;;;;4967724;28;20058;-75
2023/01/27 09:09:57;;;;;;;20.00;10.88;;;-1.20;99.90;;;;;;4966920;28;20065;-75
2023/01/27 09:12:42;;;;;;;13.25;8.68;;;-1.10;99.90;;;;;;4951566;28;20086;-75
2023/01/27 09:15:12;;;;;;;12.83;9.03;;;-1.10;99.90;;;;;;4966711;28;20062;-75
2023/01/27 09:17:41;;;;;;;17.52;8.98;;;-1.30;99.90;;;;;;4963901;28;20039;-75
2023/01/27 09:20:09;;;;;;;14.32;9.05;;;-1.30;99.90;;;;;;4963211;28;20046;-75
2023/01/27 09:22:40;;;;;;;17.95;7.90;;;-1.20;99.90;;;;;;4946831;29;20058;-75
2023/01/27 09:25:15;;;;;;;11.35;6.80;;;-1.00;99.90;;;;;;4962273;28;20051;-75
2023/01/27 09:27:43;;;;;;;11.98;8.02;;;-1.00;99.90;;;;;;4964939;28;20059;-75
2023/01/27 09:30:13;;;;;;;16.00;10.60;;;-1.00;99.90;;;;;;4961960;28;20135;-75
2023/01/27 09:32:41;;;;;;;17.52;7.78;;;-0.90;99.90;;;;;;4950522;28;20046;-75
2023/01/27 09:35:09;;;;;;;11.38;5.82;;;-0.80;99.90;;;;;;4965564;28;20047;-75
2023/01/27 09:37:53;;;;;;;10.90;6.65;;;-0.70;99.90;;;;;;4945561;28;20055;-75
2023/01/27 09:40:29;;;;;;;17.90;9.02;;;-0.80;99.90;;;;;;4944346;28;20045;-76
2023/01/27 09:43:06;;;;;;;16.80;7.35;;;-0.70;99.90;;;;;;4941593;28;20059;-75
2023/01/27 09:46:09;;;;;;;15.40;7.32;;;-0.80;99.90;;;;;;4931017;28;20050;-75
2023/01/27 09:48:36;;;;;;;15.48;7.38;;;-0.90;99.90;;;;;;4962308;28;20047;-75
2023/01/27 09:51:32;;;;;;;14.35;8.23;;;-1.00;99.90;;;;;;4964847;28;20054;-75
2023/01/27 09:54:06;;;;;;;15.63;8.35;;;-1.00;99.90;;;;;;4965243;28;20419;-75
2023/01/27 09:57:06;;;;;;;10.73;5.57;;;-0.90;99.90;;;;;;4965671;28;20042;-75
2023/01/27 09:59:59;;;;;;;11.52;8.82;;;-0.90;99.90;;;;;;4956737;28;20444;-75
2023/01/27 10:02:38;;;;;;;22.15;9.63;;;-0.80;99.90;;;;;;4921787;28;20046;-75
2023/01/27 10:05:32;;;;;;;17.38;8.15;;;-0.80;99.90;;;;;;4965645;28;20054;-75
2023/01/27 10:08:26;;;;;;;13.40;9.57;;;-0.80;99.90;;;;;;4960843;28;20054;-75
2023/01/27 10:11:30;;;;;;;18.30;11.18;;;-0.80;99.90;;;;;;4963905;28;20059;-75
2023/01/27 10:14:17;;;;;;;13.23;8.43;;;-0.70;99.90;;;;;;4947793;28;20051;-75
2023/01/27 10:16:57;;;;;;;19.55;7.70;;;-0.50;99.90;;;;;;4950052;28;20046;-75
2023/01/27 10:19:38;;;;;;;10.73;6.38;;;-0.50;99.90;;;;;;4964633;28;20051;-75
2023/01/27 10:22:18;;;;;;;16.15;7.47;;;-0.50;99.90;;;;;;4965522;28;20042;-75
2023/01/27 10:25:15;;;;;;;15.75;9.35;;;-0.50;99.90;;;;;;4964000;28;20057;-75
2023/01/27 10:27:51;;;;;;;19.52;9.25;;;-0.50;99.90;;;;;;4947586;28;20047;-75
2023/01/27 10:30:36;;;;;;;15.00;8.73;;;-0.50;99.90;;;;;;4950182;28;20047;-75
2023/01/27 10:33:18;;;;;;;21.23;8.27;;;-0.60;99.90;;;;;;4965645;28;20051;-75
2023/01/27 10:35:57;;;;;;;18.60;9.77;;;-0.60;99.90;;;;;;4965375;28;20127;-75
2023/01/27 10:39:02;;;;;;;14.10;9.05;;;-0.70;99.90;;;;;;4968411;28;20066;-75
2023/01/27 10:42:09;;;;;;;17.80;9.50;;;-0.80;99.90;;;;;;4953915;28;20058;-75
2023/01/27 10:45:02;;;;;;;12.30;7.38;;;-0.80;99.90;;;;;;4946218;28;20051;-75
2023/01/27 10:47:35;;;;;;;16.75;8.38;;;-0.80;99.90;;;;;;4966483;28;20043;-75
2023/01/27 10:50:12;;;;;;;12.10;7.30;;;-0.70;99.90;;;;;;4940779;28;20055;-75
2023/01/27 10:52:46;;;;;;;15.85;8.10;;;-0.80;99.90;;;;;;4972635;28;20043;-75
2023/01/27 10:55:24;;;;;;;9.20;6.72;;;-0.90;99.90;;;;;;4968301;28;20081;-76
2023/01/27 10:57:59;;;;;;;17.50;8.73;;;-0.90;99.90;;;;;;4969375;28;20405;-75
2023/01/27 11:00:36;;;;;;;14.65;10.20;;;-0.90;99.90;;;;;;4975572;28;20039;-75
2023/01/27 11:03:27;;;;;;;15.77;9.35;;;-0.70;99.90;;;;;;4977294;28;20065;-75
2023/01/27 11:05:59;;;;;;;17.00;9.27;;;-0.70;99.90;;;;;;4943807;28;20043;-75
2023/01/27 11:08:34;;;;;;;16.33;11.20;;;-0.70;99.90;;;;;;4977000;28;20046;-75
2023/01/27 11:14:02;;;;;;;18.73;8.88;;;-0.60;99.90;;;;;;4975749;28;20053;-75
2023/01/27 11:16:40;;;;;;;14.93;8.70;;;-0.70;99.90;;;;;;4976595;28;20035;-75
2023/01/27 11:19:26;;;;;;;18.15;9.35;;;-0.70;99.90;;;;;;4977059;28;20057;-75
2023/01/27 11:21:56;;;;;;;24.25;9.40;;;-0.80;99.90;;;;;;4959557;28;20047;-75
2023/01/27 11:24:51;;;;;;;14.85;8.35;;;-0.80;99.90;;;;;;4976164;28;20038;-75
2023/01/27 11:28:11;;;;;;;15.52;8.40;;;-0.80;99.90;;;;;;4977037;28;20047;-75
2023/01/27 11:30:52;;;;;;;24.77;12.05;;;-0.70;99.90;;;;;;4946857;28;20047;-75
2023/01/27 11:33:35;;;;;;;18.02;9.23;;;-0.80;99.90;;;;;;4976167;28;20039;-75
2023/01/27 11:36:03;;;;;;;13.05;8.63;;;-0.80;99.90;;;;;;4976033;28;20067;-75
2023/01/27 11:38:32;;;;;;;18.83;8.70;;;-0.90;99.90;;;;;;4959086;28;20074;-74
2023/01/27 11:40:59;;;;;;;18.65;11.32;;;-0.80;99.90;;;;;;4976233;28;20050;-75
2023/01/27 11:43:28;;;;;;;9.35;6.60;;;-0.90;99.90;;;;;;4957749;28;20392;-75
2023/01/27 11:46:01;;;;;;;23.70;9.45;;;-0.90;99.90;;;;;;4988735;28;20122;-75
2023/01/27 11:48:51;;;;;;;18.55;10.60;;;-1.00;99.90;;;;;;4997395;28;20034;-75
2023/01/27 11:51:25;;;;;;;14.68;9.35;;;-0.90;99.90;;;;;;4995412;28;20034;-75
2023/01/27 11:54:02;;;;;;;15.80;9.07;;;-0.80;99.90;;;;;;4980722;28;20110;-75
2023/01/27 11:56:32;;;;;;;18.75;9.60;;;-0.80;99.90;;;;;;4995005;28;20045;-75
2023/01/27 11:59:08;;;;;;;12.88;7.88;;;-0.80;99.90;;;;;;4995385;28;20035;-75
2023/01/27 12:01:48;;;;;;;17.48;9.02;;;-0.70;99.90;;;;;;4964933;28;20053;-75
2023/01/27 12:04:38;;;;;;;23.27;11.43;;;-0.80;99.90;;;;;;4988008;28;20035;-76
2023/01/27 12:07:17;;;;;;;24.17;8.27;;;-0.80;99.90;;;;;;4992501;28;20038;-75
2023/01/27 12:09:44;;;;;;;14.75;10.27;;;-0.80;99.90;;;;;;4991973;28;20043;-75
2023/01/27 12:12:12;;;;;;;19.25;11.07;;;-0.90;99.90;;;;;;4994707;28;20039;-75
2023/01/27 12:14:58;;;;;;;23.90;9.85;;;-1.00;99.90;;;;;;4995657;28;20026;-76
2023/01/27 12:17:39;;;;;;;17.55;9.63;;;-1.00;99.90;;;;;;4993737;28;20039;-73
2023/01/27 12:20:21;;;;;;;13.90;9.93;;;-0.90;99.90;;;;;;4995923;28;20057;-75
2023/01/27 12:22:53;;;;;;;24.15;9.95;;;-0.90;99.90;;;;;;4989242;28;20049;-75
2023/01/27 12:25:23;;;;;;;;;;;-0.90;99.90;;;;;;4980391;28;20047;-75
2023/01/27 12:27:56;;;;;;;14.55;8.57;;;-1.00;99.90;;;;;;4990161;28;19926;-75
2023/01/27 12:30:28;;;;;;;19.95;10.13;;;-0.90;99.90;;;;;;4967690;28;20055;-74
2023/01/27 12:32:57;;;;;;;19.13;10.52;;;-0.80;99.90;;;;;;4968575;28;20295;-75
2023/01/27 12:35:31;;;;;;;10.93;7.28;;;-0.80;99.90;;;;;;4951069;28;20415;-75
2023/01/27 12:38:21;;;;;;;14.40;8.82;;;-0.90;99.90;;;;;;4952247;28;20499;-75
2023/01/27 12:41:01;;;;;;;16.60;8.77;;;-1.00;99.90;;;;;;4960839;28;20039;-75
2023/01/27 12:43:29;;;;;;;14.38;9.52;;;-1.00;99.90;;;;;;4944800;28;20058;-74
2023/01/27 12:46:10;;;;;;;17.20;9.13;;;-1.00;99.90;;;;;;4945597;28;20042;-74
2023/01/27 12:48:48;;;;;;;17.15;8.93;;;-0.90;99.90;;;;;;4952633;28;20051;-75
2023/01/27 12:51:39;;;;;;;11.20;5.97;;;-0.90;99.90;;;;;;4967405;28;20355;-74
2023/01/27 12:54:26;;;;;;;8.55;6.75;;;-0.80;99.90;;;;;;4960035;28;20512;-75
2023/01/27 12:57:03;;;;;;;13.00;7.60;;;-0.70;99.90;;;;;;4967039;28;20047;-75
2023/01/27 12:59:32;;;;;;;18.38;8.57;;;-0.90;99.90;;;;;;4966594;28;20094;-75
2023/01/27 13:02:21;;;;;;;21.50;9.20;;;-0.70;99.90;;;;;;4968360;28;20047;-75
2023/01/27 13:05:03;;;;;;;16.13;7.85;;;-0.70;99.90;;;;;;4943520;28;20057;-75
2023/01/27 13:07:44;;;;;;;16.38;10.07;;;-0.70;99.90;;;;;;4967379;28;20061;-75
2023/01/27 13:10:30;;;;;;;12.02;7.43;;;-0.70;99.90;;;;;;4962789;28;20057;-75
2023/01/27 13:12:59;;;;;;;10.20;7.05;;;-0.80;99.90;;;;;;4951329;28;20066;-74
2023/01/27 13:15:30;;;;;;;16.60;10.90;;;-0.90;99.90;;;;;;4957196;28;20051;-75
2023/01/27 13:17:59;;;;;;;15.65;11.30;;;-0.90;99.90;;;;;;4961980;28;20077;-75
2023/01/27 13:20:44;;;;;;;14.15;9.10;;;-0.90;99.90;;;;;;4953498;28;20431;-75
2023/01/27 13:23:25;;;;;;;13.07;8.50;;;-0.80;99.90;;;;;;4958535;28;20749;-75
2023/01/27 13:26:10;;;;;;;11.32;7.40;;;-0.80;99.90;;;;;;4943711;28;20412;-75
2023/01/27 13:28:46;;;;;;;12.85;8.05;;;-0.80;99.90;;;;;;4965644;28;20094;-75
2023/01/27 13:31:26;;;;;;;14.93;10.10;;;-0.70;99.90;;;;;;4946002;28;20054;-75
2023/01/27 13:33:59;;;;;;;20.13;9.98;;;-0.60;99.90;;;;;;4951696;28;20423;-75
2023/01/27 13:36:47;;;;;;;18.95;9.52;;;-0.70;99.90;;;;;;4966816;28;20066;-75
2023/01/27 13:39:40;;;;;;;17.58;10.13;;;-0.70;99.90;;;;;;4948403;28;20299;-75